Time;durP1;ratioP1;P1;durP2;ratioP2;P2;SDS_P1;SDS_P2;PMS_P1;PMS_P2;Temp;Humidity;BMP_temperature;BMP_pressure;BME280_temperature;BME280_humidity;BME280_pressure;Samples;Min_cycle;Max_cycle;Signal;HPM_P1;HPM_P2
2021/05/10 00:01:00;;;;;;;7.15;3.15;;;;;;;4.96;100.00;101888.73;1685159;85;21244;-80
2021/05/10 00:03:25;;;;;;;8.35;2.80;;;;;;;4.88;100.00;101890.22;1685182;85;21239;-80
2021/05/10 00:05:51;;;;;;;9.18;4.03;;;;;;;4.80;100.00;101888.18;1685280;85;21029;-80
2021/05/10 00:08:18;;;;;;;6.95;3.20;;;;;;;4.74;100.00;101888.42;1685317;85;21080;-79
2021/05/10 00:10:44;;;;;;;9.28;3.25;;;;;;;4.69;100.00;101886.31;1685163;85;21064;-80
2021/05/10 00:13:13;;;;;;;8.55;3.15;;;;;;;4.67;100.00;101880.83;1685225;85;21224;-80
2021/05/10 00:15:38;;;;;;;8.45;3.40;;;;;;;4.57;100.00;101887.82;1684937;85;21203;-79
2021/05/10 00:18:05;;;;;;;8.35;3.12;;;;;;;4.44;100.00;101891.17;1685509;85;21623;-79
2021/05/10 00:20:35;;;;;;;6.42;2.80;;;;;;;4.41;100.00;101889.36;1693549;84;21134;-79
2021/05/10 00:23:02;;;;;;;8.70;3.00;;;;;;;4.40;100.00;101885.87;1695001;84;22253;-79
2021/05/10 00:25:28;;;;;;;7.78;2.92;;;;;;;4.39;100.00;101890.08;1694895;84;21239;-79
2021/05/10 00:27:54;;;;;;;9.65;3.70;;;;;;;4.35;100.00;101890.11;1694881;84;21179;-80
2021/05/10 00:30:23;;;;;;;7.85;3.33;;;;;;;4.29;100.00;101892.53;1694842;84;21183;-79
2021/05/10 00:32:50;;;;;;;8.73;3.30;;;;;;;4.25;100.00;101892.56;1661905;84;21210;-79
2021/05/10 00:35:19;;;;;;;9.18;3.08;;;;;;;4.17;100.00;101891.83;1694719;84;21415;-79
2021/05/10 00:37:45;;;;;;;8.75;3.20;;;;;;;4.07;100.00;101889.45;1694885;84;21190;-79
2021/05/10 00:40:14;;;;;;;10.03;3.67;;;;;;;3.98;100.00;101890.05;1690230;84;21087;-79
2021/05/10 00:42:40;;;;;;;8.65;3.17;;;;;;;3.93;100.00;101892.95;1694868;84;21131;-79
2021/05/10 00:45:08;;;;;;;7.72;3.22;;;;;;;3.82;100.00;101898.22;1695037;84;21167;-79
2021/05/10 00:47:35;;;;;;;9.20;3.30;;;;;;;3.78;100.00;101893.76;1694998;84;21608;-79
2021/05/10 00:50:02;;;;;;;8.93;3.08;;;;;;;3.73;100.00;101895.31;1694864;84;21224;-80
2021/05/10 00:52:28;;;;;;;8.20;3.65;;;;;;;3.69;100.00;101894.86;1694892;84;21151;-79
2021/05/10 00:54:55;;;;;;;7.47;3.27;;;;;;;3.58;100.00;101897.96;1694881;84;21668;-79
2021/05/10 00:57:23;;;;;;;8.33;3.22;;;;;;;3.50;100.00;101894.89;1694854;84;21571;-79
2021/05/10 00:59:51;;;;;;;9.55;3.85;;;;;;;3.48;100.00;101900.89;1694874;84;21121;-80
2021/05/10 01:02:18;;;;;;;9.28;4.03;;;;;;;3.44;100.00;101896.91;1694982;84;22049;-80
2021/05/10 01:04:45;;;;;;;9.85;3.75;;;;;;;3.45;100.00;101899.92;1694753;84;20981;-79
2021/05/10 01:07:14;;;;;;;16.40;4.33;;;;;;;3.43;100.00;101900.59;1694857;84;21450;-79
2021/05/10 01:09:40;;;;;;;8.98;3.45;;;;;;;3.41;100.00;101895.94;1694823;84;21667;-80
2021/05/10 01:12:07;;;;;;;7.87;3.45;;;;;;;3.35;100.00;101896.66;1694978;84;20999;-80
2021/05/10 01:14:34;;;;;;;9.28;3.85;;;;;;;3.25;100.00;101904.09;1666877;84;21231;-81
2021/05/10 01:17:01;;;;;;;8.65;3.90;;;;;;;3.15;100.00;101906.49;1694958;84;21239;-80
2021/05/10 01:19:28;;;;;;;9.15;3.72;;;;;;;3.13;100.00;101905.02;1689981;84;21453;-79
2021/05/10 01:21:58;;;;;;;7.50;3.40;;;;;;;3.09;100.00;101904.55;1677538;85;21572;-80
2021/05/10 01:24:26;;;;;;;10.85;4.40;;;;;;;3.06;100.00;101902.24;1677373;85;21188;-79
2021/05/10 01:26:53;;;;;;;8.43;3.55;;;;;;;3.03;100.00;101913.72;1677623;85;21165;-79
2021/05/10 01:29:20;;;;;;;10.20;3.92;;;;;;;3.03;100.00;101912.39;1677557;85;21165;-80
2021/05/10 01:31:46;;;;;;;6.47;3.35;;;;;;;2.88;100.00;101907.86;1677660;85;21566;-80
2021/05/10 01:34:12;;;;;;;7.75;3.35;;;;;;;2.75;100.00;101915.58;1677568;85;21124;-80
2021/05/10 01:36:37;;;;;;;10.98;4.03;;;;;;;2.71;100.00;101909.78;1657804;85;21588;-80
2021/05/10 01:39:05;;;;;;;9.65;3.90;;;;;;;2.64;100.00;101918.63;1677495;85;21072;-80
2021/05/10 01:41:31;;;;;;;9.35;3.72;;;;;;;2.61;100.00;101917.64;1677487;85;21593;-80
2021/05/10 01:43:57;;;;;;;9.95;4.17;;;;;;;2.53;100.00;101916.35;1677547;85;21143;-80
2021/05/10 01:46:23;;;;;;;8.50;3.90;;;;;;;2.55;100.00;101915.69;1677587;85;20973;-80
2021/05/10 01:48:49;;;;;;;10.72;3.90;;;;;;;2.47;100.00;101925.37;1658063;85;20970;-80
2021/05/10 01:51:15;;;;;;;11.22;3.80;;;;;;;2.45;100.00;101918.06;1657903;85;21189;-79
2021/05/10 01:53:45;;;;;;;8.63;3.75;;;;;;;2.42;100.00;101914.42;1677528;85;21044;-79
2021/05/10 01:56:11;;;;;;;10.53;4.05;;;;;;;2.40;100.00;101914.26;1677494;84;21056;-80
2021/05/10 01:58:37;;;;;;;12.13;3.70;;;;;;;2.37;100.00;101926.07;1677555;85;21041;-79
2021/05/10 02:01:03;;;;;;;11.35;3.80;;;;;;;2.34;100.00;101920.27;1677532;85;21140;-80
2021/05/10 02:03:29;;;;;;;10.03;3.62;;;;;;;2.34;100.00;101918.44;1677533;85;21280;-80
2021/05/10 02:05:55;;;;;;;9.88;3.90;;;;;;;2.34;100.00;101927.75;1677347;85;20941;-80
2021/05/10 02:08:21;;;;;;;10.28;3.77;;;;;;;2.34;100.00;101922.42;1677716;85;21164;-80
2021/05/10 02:10:50;;;;;;;11.12;3.95;;;;;;;2.32;100.00;101926.26;1677834;84;21139;-80
2021/05/10 02:13:22;;;;;;;9.70;3.80;;;;;;;2.30;100.00;101929.10;1677754;85;21525;-80
2021/05/10 02:15:55;;;;;;;10.00;3.75;;;;;;;2.28;100.00;101929.77;1677774;85;21160;-80
2021/05/10 02:18:25;;;;;;;10.45;4.00;;;;;;;2.28;100.00;101934.58;1658320;85;21152;-79
2021/05/10 02:20:52;;;;;;;11.57;3.77;;;;;;;2.38;100.00;101940.19;1690490;84;21520;-79
2021/05/10 02:23:23;;;;;;;8.45;3.30;;;;;;;2.44;100.00;101938.17;1695092;84;21166;-79
2021/05/10 02:25:55;;;;;;;8.40;3.72;;;;;;;2.54;100.00;101934.81;1637835;86;21270;-79
2021/05/10 02:28:25;;;;;;;8.78;3.72;;;;;;;2.62;100.00;101940.11;1583640;90;21236;-79
2021/05/10 02:30:53;;;;;;;8.20;3.22;;;;;;;2.73;100.00;101940.20;1583556;90;21229;-79
2021/05/10 02:33:25;;;;;;;10.65;4.28;;;;;;;2.84;100.00;101942.47;1583717;90;21593;-79
2021/05/10 02:35:54;;;;;;;9.73;3.40;;;;;;;2.89;100.00;101945.95;1552851;91;21148;-80
2021/05/10 02:38:21;;;;;;;8.08;3.80;;;;;;;2.94;100.00;101943.56;1552850;91;21229;-80
2021/05/10 02:40:49;;;;;;;8.55;3.40;;;;;;;3.01;100.00;101951.20;1552772;91;21947;-80
2021/05/10 02:43:20;;;;;;;7.10;3.08;;;;;;;3.15;100.00;101958.44;1552860;91;21173;-79
2021/05/10 02:45:46;;;;;;;9.45;3.92;;;;;;;3.30;100.00;101957.67;1552807;91;21707;-80
2021/05/10 02:48:14;;;;;;;8.43;3.15;;;;;;;3.38;100.00;101951.78;1552861;91;21236;-79
2021/05/10 02:50:40;;;;;;;8.38;3.17;;;;;;;3.49;100.00;101959.01;1552858;91;21192;-80
2021/05/10 02:53:07;;;;;;;8.88;3.40;;;;;;;3.61;100.00;101953.06;1552948;91;22001;-80
2021/05/10 02:55:33;;;;;;;7.50;3.08;;;;;;;3.77;100.00;101956.10;1552641;91;21674;-80
2021/05/10 02:57:59;;;;;;;8.95;3.85;;;;;;;3.94;100.00;101962.11;1552658;91;21257;-80
2021/05/10 03:00:27;;;;;;;9.68;3.50;;;;;;;4.18;100.00;101962.88;1552808;91;21200;-80
2021/05/10 03:02:57;;;;;;;7.30;3.47;;;;;;;4.39;100.00;101956.79;1552835;91;21229;-80
2021/05/10 03:05:27;;;;;;;8.85;3.70;;;;;;;4.56;100.00;101956.91;1552785;91;21321;-80
2021/05/10 03:07:54;;;;;;;9.05;3.47;;;;;;;4.69;100.00;101953.57;1552755;91;21218;-80
2021/05/10 03:10:24;;;;;;;7.65;3.42;;;;;;;4.86;100.00;101958.20;1552766;91;21191;-80
2021/05/10 03:12:53;;;;;;;7.80;3.50;;;;;;;5.02;100.00;101952.60;1552846;91;21276;-79
2021/05/10 03:15:21;;;;;;;7.95;3.30;;;;;;;5.24;100.00;101957.47;1553862;90;21718;-80
2021/05/10 03:17:52;;;;;;;8.85;3.47;;;;;;;5.51;100.00;101964.40;1562127;90;21263;-79
2021/05/10 03:20:22;;;;;;;6.65;2.50;;;;;;;5.92;100.00;101957.83;1562048;90;21226;-81
2021/05/10 03:22:52;;;;;;;7.40;3.27;;;;;;;6.71;100.00;101964.69;1562019;90;21715;-80
2021/05/10 03:25:21;;;;;;;7.75;3.12;;;;;;;7.44;100.00;101973.73;1596722;88;21088;-81
2021/05/10 03:27:47;;;;;;;8.98;3.08;;;;;;;8.68;100.00;101968.59;1619862;88;21205;-80
2021/05/10 03:30:23;;;;;;;7.75;2.75;;;;;;;9.83;100.00;101972.02;1619894;88;21201;-81
2021/05/10 03:32:50;;;;;;;6.53;2.90;;;;;;;10.65;92.49;101970.47;1659710;84;21167;-81
2021/05/10 03:35:17;;;;;;;4.97;2.92;;;;;;;11.95;79.71;101968.97;1694988;84;21636;-81
2021/05/10 03:37:44;;;;;;;6.00;2.52;;;;;;;12.64;79.38;101969.92;1694882;84;21726;-81
2021/05/10 03:40:13;;;;;;;5.25;2.83;;;;;;;14.69;77.18;101964.58;1694967;84;21718;-81
2021/05/10 03:42:40;;;;;;;4.33;2.62;;;;;;;14.69;77.18;101964.58;1694973;84;21257;-81
2021/05/10 03:45:09;;;;;;;6.10;2.35;;;;;;;15.56;63.47;101972.76;1695063;84;21654;-81
2021/05/10 03:47:41;;;;;;;5.03;2.45;;;;;;;15.71;50.88;101963.42;1694927;84;21025;-81
2021/05/10 03:50:13;;;;;;;9.90;3.15;;;;;;;16.45;55.46;101962.50;1694884;84;21154;-81
2021/05/10 03:52:39;;;;;;;12.47;2.67;;;;;;;17.15;52.38;101962.19;1695336;84;21174;-81
2021/05/10 03:55:09;;;;;;;6.33;2.12;;;;;;;17.90;43.97;101961.91;1695004;84;22006;-81
2021/05/10 03:57:35;;;;;;;4.42;2.65;;;;;;;18.13;46.46;101960.51;1679471;84;21167;-81
2021/05/10 04:00:03;;;;;;;4.67;2.40;;;;;;;18.72;44.61;101958.91;1661859;86;21065;-82
2021/05/10 04:02:29;;;;;;;3.62;2.55;;;;;;;19.35;46.37;101965.64;1663856;86;21223;-81
2021/05/10 04:05:07;;;;;;;14.55;2.70;;;;;;;20.15;45.08;101958.36;1666483;86;20997;-81
2021/05/10 04:07:35;;;;;;;6.67;2.60;;;;;;;20.53;42.71;101963.41;1663515;86;21164;-81
2021/05/10 04:10:08;;;;;;;4.15;2.20;;;;;;;20.95;37.54;101969.15;1666029;86;21203;-81
2021/05/10 04:15:04;;;;;;;3.37;2.00;;;;;;;21.50;37.75;101962.53;1666320;86;21240;-81
2021/05/10 04:17:30;;;;;;;26.40;3.12;;;;;;;21.07;35.18;101962.09;1666450;86;21580;-80
2021/05/10 04:19:56;;;;;;;5.95;2.67;;;;;;;21.24;36.97;101959.39;1665770;85;21180;-81
2021/05/10 04:22:21;;;;;;;3.45;2.12;;;;;;;22.68;37.48;101963.88;1661860;86;21053;-80
2021/05/10 04:24:48;;;;;;;4.33;2.45;;;;;;;23.43;35.26;101968.48;1661812;86;20994;-81
2021/05/10 04:27:14;;;;;;;8.73;2.45;;;;;;;23.70;34.53;101966.97;1661801;86;21139;-81
2021/05/10 04:29:40;;;;;;;12.23;2.55;;;;;;;23.68;29.25;101965.09;1661611;86;21628;-80
2021/05/10 04:32:07;;;;;;;2.67;1.92;;;;;;;23.66;31.74;101965.16;1661701;86;21224;-81
2021/05/10 04:34:33;;;;;;;5.58;2.52;;;;;;;23.84;29.93;101965.52;1661645;86;21155;-81
2021/05/10 04:36:59;;;;;;;3.50;2.30;;;;;;;23.82;28.58;101960.08;1661816;86;21188;-81
2021/05/10 04:39:28;;;;;;;4.10;2.10;;;;;;;23.75;28.07;101962.72;1626266;88;21466;-83
2021/05/10 04:41:54;;;;;;;4.92;3.10;;;;;;;23.63;28.66;101966.59;1629156;88;21175;-81
2021/05/10 04:44:20;;;;;;;3.58;2.00;;;;;;;25.55;30.37;101965.08;1609859;88;21956;-80
2021/05/10 04:46:46;;;;;;;3.60;2.17;;;;;;;25.55;30.37;101965.08;1622955;87;21224;-81
2021/05/10 04:49:12;;;;;;;4.83;2.47;;;;;;;24.48;26.04;101970.08;1622339;87;21011;-81
2021/05/10 04:51:38;;;;;;;2.60;1.85;;;;;;;24.67;30.22;101957.38;1622443;87;21696;-81
2021/05/10 04:54:05;;;;;;;3.90;2.17;;;;;;;23.74;27.53;101965.80;1622109;87;20990;-81
2021/05/10 04:56:31;;;;;;;4.47;2.30;;;;;;;23.93;28.74;101962.23;1622291;87;21241;-80
2021/05/10 04:58:56;;;;;;;2.67;1.90;;;;;;;25.06;27.79;101968.59;1621811;88;20986;-81
2021/05/10 05:01:22;;;;;;;3.50;2.42;;;;;;;24.72;26.04;101966.06;1622103;87;21062;-81
2021/05/10 05:03:48;;;;;;;4.85;2.00;;;;;;;25.28;24.56;101962.94;1603695;88;20970;-81
2021/05/10 05:06:14;;;;;;;4.35;2.25;;;;;;;24.58;28.33;101965.39;1622545;87;21010;-81
2021/05/10 05:08:40;;;;;;;8.08;2.60;;;;;;;23.90;27.50;101965.63;1603740;88;22045;-81
2021/05/10 05:11:06;;;;;;;3.80;1.98;;;;;;;23.83;27.19;101968.03;1622647;87;21046;-81
2021/05/10 05:13:32;;;;;;;7.25;2.20;;;;;;;24.80;27.03;101968.60;1622059;88;21193;-81
2021/05/10 05:15:58;;;;;;;3.45;2.15;;;;;;;23.83;27.11;101965.28;1622080;88;21172;-81
2021/05/10 05:18:24;;;;;;;3.92;2.25;;;;;;;25.22;27.74;101963.44;1623217;87;21174;-81
2021/05/10 05:20:51;;;;;;;2.45;1.90;;;;;;;25.98;25.38;101949.78;1623704;86;21181;-81
2021/05/10 05:23:22;;;;;;;3.05;1.80;;;;;;;26.96;24.12;101956.59;1626650;87;21160;-82
2021/05/10 05:25:53;;;;;;;2.37;2.17;;;;;;;28.02;24.47;101954.63;1546206;91;21251;-82
2021/05/10 05:28:19;;;;;;;3.02;1.90;;;;;;;27.82;23.05;101948.59;1543351;92;21255;-82
2021/05/10 05:30:46;;;;;;;2.90;2.30;;;;;;;27.89;24.42;101948.05;1545705;92;21194;-81
2021/05/10 05:33:12;;;;;;;2.92;2.02;;;;;;;27.05;21.82;101955.13;1545684;91;21956;-81
2021/05/10 05:35:38;;;;;;;2.75;1.98;;;;;;;28.68;23.47;101953.56;1545544;92;21236;-82
2021/05/10 05:38:08;;;;;;;2.20;2.00;;;;;;;28.00;22.73;101943.64;1545630;92;21133;-82
2021/05/10 05:40:32;;;;;;;3.80;1.92;;;;;;;28.82;21.51;101946.80;1537051;91;21267;-81
2021/05/10 05:42:58;;;;;;;3.25;1.90;;;;;;;29.11;22.07;101945.10;1535448;93;21130;-81
2021/05/10 05:45:24;;;;;;;2.05;1.82;;;;;;;26.87;21.45;101948.36;1545530;91;21275;-81
2021/05/10 05:47:50;;;;;;;3.33;2.00;;;;;;;22.84;24.68;101946.47;1545498;91;21723;-82
2021/05/10 05:50:16;;;;;;;2.40;1.87;;;;;;;22.17;25.93;101942.95;1545691;91;21197;-82
2021/05/10 05:52:42;;;;;;;4.28;2.20;;;;;;;22.48;26.83;101936.28;1490181;94;21036;-81
2021/05/10 05:55:10;;;;;;;3.15;1.80;;;;;;;23.97;26.47;101927.98;1513608;93;21185;-81
2021/05/10 05:57:36;;;;;;;2.65;2.00;;;;;;;25.39;24.82;101923.39;1509839;93;21264;-81
2021/05/10 06:00:03;;;;;;;2.98;2.20;;;;;;;25.97;23.09;101926.08;1513609;93;21498;-81
2021/05/10 06:02:29;;;;;;;3.10;2.30;;;;;;;26.91;24.25;101918.89;1509818;93;21197;-81
2021/05/10 06:04:55;;;;;;;3.35;2.37;;;;;;;26.95;20.98;101916.25;1513685;93;21754;-81
2021/05/10 06:07:21;;;;;;;3.65;2.50;;;;;;;27.24;22.64;101907.59;1509843;93;21078;-82
2021/05/10 06:09:47;;;;;;;3.72;2.50;;;;;;;27.56;21.71;101905.94;1513570;93;21203;-81
2021/05/10 06:12:14;;;;;;;3.58;2.40;;;;;;;27.96;21.18;101901.96;1509699;93;21623;-82
2021/05/10 06:14:39;;;;;;;5.25;2.55;;;;;;;28.24;20.90;101905.42;1513761;93;21209;-82
2021/05/10 06:17:05;;;;;;;4.00;2.33;;;;;;;28.61;18.89;101906.75;1533572;90;21075;-82
2021/05/10 06:19:33;;;;;;;2.50;2.17;;;;;;;27.84;19.42;101906.12;1535634;93;21093;-81
2021/05/10 06:21:59;;;;;;;4.35;2.25;;;;;;;26.23;21.26;101894.13;1562863;87;21274;-81
2021/05/10 06:24:25;;;;;;;2.37;1.95;;;;;;;28.73;19.92;101901.96;1626324;87;20985;-81
2021/05/10 06:26:51;;;;;;;2.22;2.00;;;;;;;29.11;19.23;101888.77;1626844;87;21089;-81
2021/05/10 06:29:17;;;;;;;2.60;2.10;;;;;;;28.55;19.75;101883.19;1626553;87;21085;-82
2021/05/10 06:31:43;;;;;;;1.95;1.75;;;;;;;29.16;19.82;101890.71;1601103;88;21705;-82
2021/05/10 06:34:09;;;;;;;2.00;1.80;;;;;;;28.22;19.47;101882.20;1626205;87;21963;-81
2021/05/10 06:36:34;;;;;;;1.90;1.80;;;;;;;28.53;19.75;101883.53;1626293;87;20974;-82
2021/05/10 06:39:00;;;;;;;4.40;1.92;;;;;;;27.93;19.36;101874.95;1626546;87;21096;-81
2021/05/10 06:41:26;;;;;;;4.90;1.98;;;;;;;28.20;17.72;101879.54;1626600;87;21031;-81
2021/05/10 06:43:52;;;;;;;2.47;1.95;;;;;;;28.46;19.05;101875.02;1626195;87;21653;-81
2021/05/10 06:46:18;;;;;;;2.83;1.80;;;;;;;27.57;18.62;101871.57;1626381;87;21301;-81
2021/05/10 06:48:44;;;;;;;5.05;1.67;;;;;;;28.60;19.23;101868.50;1600893;88;21014;-83
2021/05/10 06:51:10;;;;;;;2.10;1.90;;;;;;;24.88;18.92;101883.12;1626062;87;20994;-81
2021/05/10 06:53:36;;;;;;;2.83;1.72;;;;;;;23.78;22.49;101873.18;1626357;87;20994;-81
2021/05/10 06:56:02;;;;;;;3.12;1.87;;;;;;;24.34;22.42;101868.78;1622475;87;21097;-82
2021/05/10 06:58:28;;;;;;;1.75;1.62;;;;;;;25.62;18.74;101860.48;1626884;87;21273;-82
2021/05/10 07:00:56;;;;;;;1.80;1.70;;;;;;;26.46;19.84;101855.12;1600935;87;21219;-83
2021/05/10 07:03:22;;;;;;;2.52;1.90;;;;;;;28.20;18.82;101868.45;1626677;87;21169;-82
2021/05/10 07:05:49;;;;;;;4.17;1.80;;;;;;;24.68;21.06;101870.80;1626474;87;21161;-82
2021/05/10 07:08:17;;;;;;;2.60;1.70;;;;;;;27.69;18.57;101854.15;1626286;87;21176;-82
2021/05/10 07:10:50;;;;;;;3.33;1.60;;;;;;;26.14;20.64;101846.98;1627246;87;21245;-81
2021/05/10 07:13:16;;;;;;;1.90;1.50;;;;;;;27.23;18.95;101834.02;1626551;87;21161;-82
2021/05/10 07:15:43;;;;;;;3.50;1.90;;;;;;;28.78;18.11;101835.71;1631589;86;21201;-81
2021/05/10 07:18:12;;;;;;;2.37;1.90;;;;;;;27.85;17.56;101839.30;1659038;85;21149;-82
2021/05/10 07:20:41;;;;;;;2.60;1.50;;;;;;;28.08;16.65;101840.97;1658939;85;21203;-82
2021/05/10 07:23:08;;;;;;;4.03;1.70;;;;;;;23.51;20.23;101851.59;1659076;86;21175;-81
2021/05/10 07:25:37;;;;;;;1.90;1.55;;;;;;;22.11;22.57;101848.85;1658901;86;21153;-81
2021/05/10 07:28:04;;;;;;;3.12;1.70;;;;;;;25.24;20.04;101828.14;1658691;86;21208;-82
2021/05/10 07:30:30;;;;;;;5.42;2.00;;;;;;;26.82;19.14;101822.69;1659045;86;21176;-81
2021/05/10 07:32:56;;;;;;;1.60;1.50;;;;;;;22.85;21.06;101832.09;1658867;86;21166;-82
2021/05/10 07:35:22;;;;;;;2.02;1.77;;;;;;;24.65;20.94;101825.95;1659158;86;21273;-82
2021/05/10 07:37:48;;;;;;;2.98;1.67;;;;;;;24.86;19.99;101825.28;1659060;86;21148;-82
2021/05/10 07:40:21;;;;;;;3.42;1.60;;;;;;;23.13;20.95;101823.72;1659034;86;20998;-82
2021/05/10 07:42:46;;;;;;;9.68;1.80;;;;;;;24.02;22.69;101816.31;1658283;86;21163;-82
2021/05/10 07:45:12;;;;;;;3.05;1.40;;;;;;;25.40;20.23;101806.32;1659060;86;21585;-82
2021/05/10 07:47:38;;;;;;;4.00;1.55;;;;;;;26.09;20.87;101814.84;1659093;85;21989;-82
2021/05/10 07:50:05;;;;;;;2.65;1.67;;;;;;;25.30;19.59;101817.16;1665577;85;21235;-81
2021/05/10 07:52:32;;;;;;;2.20;1.70;;;;;;;26.59;20.60;101802.92;1677410;84;21183;-82
2021/05/10 07:54:58;;;;;;;2.47;1.85;;;;;;;26.69;18.63;101803.87;1660702;85;22256;-83
2021/05/10 07:57:25;;;;;;;2.50;1.90;;;;;;;28.10;18.32;101796.29;1686144;85;20957;-82
2021/05/10 07:59:52;;;;;;;4.05;1.80;;;;;;;28.61;18.15;101804.11;1687219;85;21199;-82
2021/05/10 08:02:22;;;;;;;3.22;1.77;;;;;;;29.25;17.17;101801.69;1687080;85;21151;-82
2021/05/10 08:04:46;;;;;;;1.92;1.72;;;;;;;28.20;17.59;101806.08;1682496;85;21596;-82
2021/05/10 08:07:12;;;;;;;19.48;2.50;;;;;;;28.58;17.53;101804.23;1675980;85;20986;-81
2021/05/10 08:09:39;;;;;;;3.85;1.82;;;;;;;29.43;16.19;101795.98;1630746;86;21148;-82
2021/05/10 08:12:07;;;;;;;3.77;1.75;;;;;;;29.38;16.80;101794.05;1658887;86;21248;-81
2021/05/10 08:14:34;;;;;;;1.92;1.50;;;;;;;28.45;16.92;101795.75;1629112;86;21486;-82
2021/05/10 08:17:02;;;;;;;2.05;1.65;;;;;;;28.60;18.14;101789.44;1651584;85;22144;-83
2021/05/10 08:19:29;;;;;;;7.70;1.80;;;;;;;27.25;18.84;101773.02;1664581;84;21201;-83
2021/05/10 08:21:59;;;;;;;3.17;1.70;;;;;;;28.16;17.54;101785.77;1662101;84;21249;-83
2021/05/10 08:24:26;;;;;;;2.25;1.70;;;;;;;25.19;18.91;101782.79;1641838;85;21402;-82
2021/05/10 08:26:52;;;;;;;5.25;1.40;;;;;;;27.53;18.48;101767.61;1644269;86;21153;-83
2021/05/10 08:29:19;;;;;;;2.27;1.62;;;;;;;24.56;19.53;101782.97;1633414;86;21172;-82
2021/05/10 08:31:46;;;;;;;2.15;1.60;;;;;;;27.42;17.81;101761.49;1638981;86;21635;-82
2021/05/10 08:34:17;;;;;;;3.17;1.70;;;;;;;26.93;18.34;101769.13;1650603;84;21189;-83
2021/05/10 08:36:44;;;;;;;3.90;1.63;;;;;;;26.81;19.01;101765.76;1650579;85;21196;-83
2021/05/10 08:39:11;;;;;;;9.73;1.45;;;;;;;25.15;20.20;101770.80;1642097;86;21650;-83
2021/05/10 08:41:39;;;;;;;1.40;1.30;;;;;;;22.85;21.79;101771.63;1658206;84;21221;-82
2021/05/10 08:44:11;;;;;;;1.98;1.30;;;;;;;22.95;20.95;101761.52;1647990;85;21208;-81
2021/05/10 08:46:40;;;;;;;1.85;1.60;;;;;;;27.12;18.56;101742.28;1658344;85;21184;-84
2021/05/10 08:49:07;;;;;;;3.37;1.70;;;;;;;24.99;18.89;101758.65;1661937;85;21175;-85
2021/05/10 08:51:36;;;;;;;4.08;1.32;;;;;;;24.59;19.59;101758.89;1662571;84;21191;-84
2021/05/10 08:54:02;;;;;;;2.65;1.70;;;;;;;25.03;19.88;101748.56;1655395;84;21182;-85
2021/05/10 08:56:30;;;;;;;2.20;1.47;;;;;;;23.48;20.67;101761.98;1661736;86;21152;-87
2021/05/10 08:58:56;;;;;;;2.20;1.47;;;;;;;26.27;19.48;101737.55;1646756;86;21175;-86
2021/05/10 09:01:22;;;;;;;3.47;1.50;;;;;;;26.15;19.09;101736.67;1647753;84;21285;-85
2021/05/10 09:03:50;;;;;;;3.83;1.60;;;;;;;25.32;20.14;101744.48;1644297;85;21075;-86
2021/05/10 09:06:29;;;;;;;3.77;1.45;;;;;;;26.13;18.13;101741.75;1671106;85;21737;-85
2021/05/10 09:09:04;;;;;;;2.55;1.65;;;;;;;27.37;18.37;101747.29;1670341;84;21190;-86
2021/05/10 09:11:30;;;;;;;3.15;1.37;;;;;;;25.67;18.95;101726.94;1667516;84;21100;-85
2021/05/10 09:13:59;;;;;;;2.17;1.45;;;;;;;27.04;18.67;101725.23;1663458;85;22057;-85
2021/05/10 09:16:26;;;;;;;2.33;1.57;;;;;;;27.86;18.22;101723.72;1661787;85;21133;-86
2021/05/10 09:18:59;;;;;;;3.75;1.50;;;;;;;27.52;19.02;101714.73;1667601;85;21203;-88
2021/05/10 09:21:30;;;;;;;3.62;1.70;;;;;;;24.74;20.84;101722.55;1652793;84;21128;-86
2021/05/10 09:23:58;;;;;;;1.50;1.40;;;;;;;25.55;19.31;101717.42;1648158;86;21178;-86
2021/05/10 09:26:34;;;;;;;3.27;1.40;;;;;;;26.55;18.52;101708.53;1625971;86;21837;-87
2021/05/10 09:29:02;;;;;;;2.00;1.22;;;;;;;26.72;19.15;101698.67;1626020;87;21218;-86
2021/05/10 09:31:29;;;;;;;2.22;1.57;;;;;;;26.38;18.64;101700.61;1624267;86;21253;-87
2021/05/10 09:33:56;;;;;;;1.80;1.42;;;;;;;26.31;17.75;101702.33;1623861;88;21126;-86
2021/05/10 09:36:39;;;;;;;1.77;1.22;;;;;;;22.95;22.55;101707.33;1623941;88;21637;-85
2021/05/10 09:39:20;;;;;;;2.40;1.27;;;;;;;24.34;20.89;101694.39;1572950;90;21263;-85
2021/05/10 09:42:03;;;;;;;4.03;1.52;;;;;;;23.70;19.87;101709.59;1565918;91;21191;-86
2021/05/10 09:44:43;;;;;;;2.33;1.40;;;;;;;22.95;21.33;101701.84;1504316;94;21313;-85
2021/05/10 09:47:09;;;;;;;5.12;1.20;;;;;;;21.39;23.61;101689.59;1504550;94;21155;-86
2021/05/10 09:49:50;;;;;;;5.67;1.42;;;;;;;22.29;22.16;101684.27;1503249;94;21778;-85
2021/05/10 09:52:25;;;;;;;1.67;1.25;;;;;;;23.79;20.88;101668.31;1483235;95;21278;-87
2021/05/10 09:55:00;;;;;;;2.72;1.25;;;;;;;23.54;21.32;101659.70;1501388;95;21266;-86
2021/05/10 09:57:28;;;;;;;10.93;2.37;;;;;;;21.47;21.25;101665.53;1501882;94;21211;-88
2021/05/10 10:00:20;;;;;;;27.42;4.70;;;;;;;21.19;22.27;101672.39;1524425;94;21269;-86
2021/05/10 10:02:46;;;;;;;5.80;1.55;;;;;;;21.77;22.34;101673.67;1525094;94;21201;-83
2021/05/10 10:05:12;;;;;;;3.55;1.20;;;;;;;21.95;22.03;101659.53;1524288;93;21974;-85
2021/05/10 10:07:40;;;;;;;2.77;1.55;;;;;;;22.53;22.49;101650.97;1508299;95;21386;-83
2021/05/10 10:10:08;;;;;;;2.05;1.25;;;;;;;22.52;22.34;101653.48;1512681;94;21148;-85
2021/05/10 10:12:34;;;;;;;2.33;1.20;;;;;;;22.75;22.10;101632.27;1526163;94;21195;-85
2021/05/10 10:15:00;;;;;;;3.98;1.42;;;;;;;21.91;22.79;101631.91;1526557;94;21462;-85
2021/05/10 10:17:26;;;;;;;1.75;1.20;;;;;;;21.82;22.13;101637.05;1523249;94;21286;-85
2021/05/10 10:19:54;;;;;;;4.03;1.20;;;;;;;21.99;22.88;101626.21;1499822;94;21296;-85
2021/05/10 10:22:22;;;;;;;1.82;1.25;;;;;;;22.29;22.80;101615.61;1543133;90;21215;-83
2021/05/10 10:24:49;;;;;;;6.12;1.17;;;;;;;22.75;23.01;101607.53;1550190;90;21642;-85
2021/05/10 10:27:16;;;;;;;3.62;1.15;;;;;;;21.92;23.87;101603.89;1572391;89;21712;-85
2021/05/10 10:29:46;;;;;;;1.80;1.17;;;;;;;21.89;23.29;101615.49;1593024;88;21278;-85
2021/05/10 10:32:16;;;;;;;2.30;1.40;;;;;;;21.85;22.37;101613.10;1579873;90;21576;-84
2021/05/10 10:34:46;;;;;;;2.50;1.00;;;;;;;21.80;21.90;101601.70;1581014;89;21258;-84
2021/05/10 10:37:15;;;;;;;2.75;1.00;;;;;;;21.39;22.49;101603.20;1629626;86;21135;-85
2021/05/10 10:39:53;;;;;;;3.72;1.10;;;;;;;20.81;23.48;101611.48;1635935;86;21223;-85
2021/05/10 10:42:31;;;;;;;5.37;1.20;;;;;;;19.77;24.29;101608.06;1650282;86;21789;-85
2021/05/10 10:45:02;;;;;;;4.53;1.10;;;;;;;19.89;25.86;101604.31;1629171;87;21223;-85
2021/05/10 10:47:53;;;;;;;2.42;1.00;;;;;;;20.60;23.51;101588.59;1625541;87;21235;-85
2021/05/10 10:50:22;;;;;;;4.33;1.40;;;;;;;21.17;24.09;101588.27;1624630;86;21204;-83
2021/05/10 10:52:55;;;;;;;2.15;1.02;;;;;;;20.93;23.41;101581.64;1628646;86;21201;-85
2021/05/10 10:55:41;;;;;;;4.37;1.20;;;;;;;21.45;23.25;101578.66;1627280;86;22259;-84
2021/05/10 10:58:21;;;;;;;2.22;1.07;;;;;;;21.65;22.55;101580.09;1625092;88;21040;-84
2021/05/10 11:01:14;;;;;;;1.40;1.10;;;;;;;21.29;23.22;101569.34;1622568;86;21192;-85
2021/05/10 11:03:41;;;;;;;1.70;1.17;;;;;;;21.50;23.52;101553.83;1640722;86;21618;-85
2021/05/10 11:06:08;;;;;;;2.83;1.10;;;;;;;21.37;22.39;101549.22;1636389;86;21166;-85
2021/05/10 11:08:46;;;;;;;6.42;1.45;;;;;;;21.35;23.22;101550.85;1625381;86;21273;-86
2021/05/10 11:11:37;;;;;;;3.47;1.00;;;;;;;20.54;24.27;101554.77;1556500;89;21172;-85
2021/05/10 11:14:04;;;;;;;2.60;1.00;;;;;;;20.99;23.97;101554.38;1556089;90;21632;-86
2021/05/10 11:16:53;;;;;;;1.55;1.20;;;;;;;21.14;23.42;101544.21;1573681;89;21251;-86
2021/05/10 11:19:39;;;;;;;16.65;1.55;;;;;;;21.27;23.70;101540.08;1573058;89;21187;-85
2021/05/10 11:22:34;;;;;;;3.37;1.45;;;;;;;21.38;23.10;101541.23;1568116;89;21150;-85
2021/05/10 11:25:39;;;;;;;2.00;1.20;;;;;;;19.61;24.19;101560.94;1600320;87;21866;-84
2021/05/10 11:28:31;;;;;;;2.58;1.20;;;;;;;19.60;25.54;101540.75;1591297;89;21366;-87
2021/05/10 11:31:03;;;;;;;2.95;1.10;;;;;;;20.30;24.92;101526.18;1604939;87;21195;-85
2021/05/10 11:33:57;;;;;;;1.80;1.22;;;;;;;20.40;24.28;101533.62;1604556;89;21202;-86